Time;durP1;ratioP1;P1;durP2;ratioP2;P2;SDS_P1;SDS_P2;PMS_P1;PMS_P2;Temp;Humidity;BMP_temperature;BMP_pressure;BME280_temperature;BME280_humidity;BME280_pressure;Samples;Min_cycle;Max_cycle;Signal;HPM_P1;HPM_P2
2022/07/29 00:00:45;;;;;;;4.30;2.30;;;;;;;;;;5003258;28;20178;-86
2022/07/29 00:03:49;;;;;;;3.27;2.57;;;;;;;;;;5014445;28;20177;-86
2022/07/29 00:06:53;;;;;;;3.50;2.30;;;;;;;;;;5003098;28;20216;-86
2022/07/29 00:09:57;;;;;;;5.70;2.30;;;;;;;;;;5013805;28;20221;-86
2022/07/29 00:13:01;;;;;;;2.77;2.27;;;;;;;;;;5014886;28;20181;-87
2022/07/29 00:16:05;;;;;;;2.67;2.03;;;;;;;;;;5002930;28;20189;-86
2022/07/29 00:19:09;;;;;;;2.33;2.13;;;;;;;;;;5025451;28;20174;-87
2022/07/29 00:22:13;;;;;;;4.80;2.60;;;;;;;;;;4992184;28;20185;-87
2022/07/29 00:25:17;;;;;;;3.57;1.83;;;;;;;;;;5025365;28;20525;-86
2022/07/29 00:28:21;;;;;;;4.10;2.00;;;;;;;;;;5010451;28;20224;-86
2022/07/29 00:31:26;;;;;;;3.77;1.83;;;;;;;;;;5033266;28;20671;-86
2022/07/29 00:38:00;;;;;;;2.67;2.40;;;;;;;;;;5013522;28;20220;-86
2022/07/29 00:41:05;;;;;;;2.57;2.33;;;;;;;;;;5030354;28;20548;-86
2022/07/29 00:44:09;;;;;;;2.77;2.30;;;;;;;;;;5033334;28;20192;-86
2022/07/29 00:47:13;;;;;;;2.70;2.50;;;;;;;;;;5022072;28;20564;-86
2022/07/29 00:50:17;;;;;;;3.53;2.80;;;;;;;;;;5022480;28;20173;-86
2022/07/29 00:53:22;;;;;;;3.77;2.30;;;;;;;;;;5033233;28;20172;-86
2022/07/29 00:56:26;;;;;;;5.50;2.53;;;;;;;;;;5021348;28;20208;-86
2022/07/29 00:59:31;;;;;;;3.07;2.53;;;;;;;;;;5021894;28;20193;-86
2022/07/29 01:02:35;;;;;;;2.67;2.37;;;;;;;;;;5021820;28;20177;-86
2022/07/29 01:05:41;;;;;;;3.23;2.20;;;;;;;;;;5010227;28;20196;-86
2022/07/29 01:08:47;;;;;;;3.37;2.37;;;;;;;;;;5026560;28;20224;-86
2022/07/29 01:11:52;;;;;;;4.13;2.20;;;;;;;;;;5021607;28;20181;-86
2022/07/29 01:14:56;;;;;;;2.47;2.27;;;;;;;;;;5021554;28;20180;-86
2022/07/29 01:18:00;;;;;;;2.27;2.03;;;;;;;;;;5041095;28;20215;-86
2022/07/29 01:21:07;;;;;;;3.50;2.40;;;;;;;;;;4991017;28;20181;-86
2022/07/29 01:24:25;;;;;;;4.07;2.47;;;;;;;;;;5001923;28;20185;-86
2022/07/29 01:27:44;;;;;;;3.40;2.53;;;;;;;;;;4990969;28;20222;-86
2022/07/29 01:30:51;;;;;;;2.80;2.40;;;;;;;;;;5015487;28;20181;-86
2022/07/29 01:34:01;;;;;;;3.67;2.80;;;;;;;;;;5003183;28;20184;-87
2022/07/29 01:37:18;;;;;;;3.47;2.77;;;;;;;;;;5021260;28;20698;-86
2022/07/29 01:40:28;;;;;;;4.07;2.70;;;;;;;;;;5021141;28;20181;-86
2022/07/29 01:43:40;;;;;;;3.73;2.57;;;;;;;;;;4996999;28;20185;-86
2022/07/29 01:46:53;;;;;;;3.13;2.83;;;;;;;;;;5012605;28;20221;-86
2022/07/29 01:50:00;;;;;;;3.07;2.60;;;;;;;;;;5005587;28;20213;-86
2022/07/29 01:53:08;;;;;;;5.50;2.50;;;;;;;;;;4994276;28;20197;-86
2022/07/29 01:56:14;;;;;;;2.90;2.43;;;;;;;;;;4994812;28;20189;-86
2022/07/29 01:59:20;;;;;;;3.17;2.60;;;;;;;;;;5005206;28;20182;-86
2022/07/29 02:02:26;;;;;;;3.13;2.70;;;;;;;;;;5013471;28;20529;-86
2022/07/29 02:05:34;;;;;;;2.43;2.20;;;;;;;;;;5005501;28;20177;-86
2022/07/29 02:08:39;;;;;;;3.87;2.97;;;;;;;;;;5025504;28;20220;-86
2022/07/29 02:11:49;;;;;;;3.83;2.63;;;;;;;;;;5013976;28;20189;-86
2022/07/29 02:14:56;;;;;;;5.70;3.07;;;;;;;;;;5012886;28;20197;-86
2022/07/29 02:18:07;;;;;;;3.33;2.67;;;;;;;;;;5024146;28;20228;-85
2022/07/29 02:21:13;;;;;;;3.10;2.80;;;;;;;;;;5013315;28;20193;-86
2022/07/29 02:24:18;;;;;;;3.10;2.77;;;;;;;;;;5024568;28;20205;-86
2022/07/29 02:27:24;;;;;;;3.40;2.50;;;;;;;;;;5025291;28;20544;-86
2022/07/29 02:30:30;;;;;;;3.00;2.70;;;;;;;;;;5001714;28;20208;-86
2022/07/29 02:33:35;;;;;;;3.63;2.87;;;;;;;;;;5002144;28;20196;-86
2022/07/29 02:36:41;;;;;;;2.53;2.33;;;;;;;;;;5001970;28;20193;-86
2022/07/29 02:39:48;;;;;;;4.17;2.67;;;;;;;;;;5013150;28;20192;-86
2022/07/29 02:42:52;;;;;;;3.53;2.67;;;;;;;;;;4993844;28;20625;-86
2022/07/29 02:45:58;;;;;;;3.63;2.93;;;;;;;;;;5004681;28;20300;-87
2022/07/29 02:49:12;;;;;;;2.90;2.60;;;;;;;;;;4993154;28;20205;-86
2022/07/29 02:52:21;;;;;;;3.20;2.90;;;;;;;;;;5004748;28;20174;-86
2022/07/29 02:55:45;;;;;;;4.43;2.77;;;;;;;;;;5004795;28;20178;-86
2022/07/29 02:58:55;;;;;;;2.87;2.63;;;;;;;;;;4993018;28;20182;-86
2022/07/29 03:02:00;;;;;;;2.50;2.30;;;;;;;;;;5004545;28;20181;-86
2022/07/29 03:05:07;;;;;;;3.73;2.70;;;;;;;;;;4993307;28;20182;-86
2022/07/29 03:08:14;;;;;;;2.83;2.53;;;;;;;;;;4992933;28;20217;-86
2022/07/29 03:11:18;;;;;;;5.53;2.40;;;;;;;;;;5012469;28;20177;-86
2022/07/29 03:14:23;;;;;;;4.93;2.40;;;;;;;;;;5012321;28;20651;-86
2022/07/29 03:17:27;;;;;;;2.83;2.63;;;;;;;;;;5020952;28;20223;-87
2022/07/29 03:20:32;;;;;;;3.00;2.53;;;;;;;;;;5044050;28;20172;-87
2022/07/29 03:23:36;;;;;;;4.17;2.70;;;;;;;;;;5032660;28;20176;-87
2022/07/29 03:26:40;;;;;;;3.20;2.77;;;;;;;;;;5020401;28;20192;-84
2022/07/29 03:29:44;;;;;;;3.60;2.73;;;;;;;;;;5031128;28;20670;-84
2022/07/29 03:32:50;;;;;;;3.53;2.60;;;;;;;;;;5021514;28;20555;-83
2022/07/29 03:35:54;;;;;;;4.07;2.47;;;;;;;;;;5045258;28;20176;-84
2022/07/29 03:38:59;;;;;;;3.53;2.73;;;;;;;;;;5044713;28;20184;-84
2022/07/29 03:42:06;;;;;;;3.70;2.60;;;;;;;;;;5028421;28;20196;-84
2022/07/29 03:45:13;;;;;;;2.73;2.37;;;;;;;;;;5002015;28;20192;-84
2022/07/29 03:48:21;;;;;;;3.10;2.60;;;;;;;;;;5024583;28;20699;-84
2022/07/29 03:51:26;;;;;;;5.13;2.50;;;;;;;;;;5013510;28;20181;-84
2022/07/29 03:54:30;;;;;;;3.13;2.60;;;;;;;;;;5014014;28;20181;-84
2022/07/29 03:57:37;;;;;;;3.63;2.67;;;;;;;;;;4982486;28;20221;-84
2022/07/29 04:00:42;;;;;;;3.93;2.90;;;;;;;;;;4993281;28;20667;-84
2022/07/29 04:03:46;;;;;;;3.50;2.63;;;;;;;;;;5004449;28;20177;-84
2022/07/29 04:06:51;;;;;;;4.70;2.60;;;;;;;;;;4993631;28;20216;-84
2022/07/29 04:09:55;;;;;;;2.77;2.47;;;;;;;;;;5004125;28;20197;-84
2022/07/29 04:12:59;;;;;;;3.33;2.53;;;;;;;;;;5015238;28;20185;-84
2022/07/29 04:16:04;;;;;;;3.47;2.33;;;;;;;;;;4992923;28;20174;-84
2022/07/29 04:19:08;;;;;;;4.37;2.40;;;;;;;;;;5016531;28;20182;-83
2022/07/29 04:22:13;;;;;;;2.90;2.53;;;;;;;;;;5000903;28;20177;-84
2022/07/29 04:25:17;;;;;;;3.23;2.73;;;;;;;;;;5001074;28;20640;-84
2022/07/29 04:28:21;;;;;;;3.23;2.40;;;;;;;;;;5001113;28;20225;-84
2022/07/29 04:31:25;;;;;;;2.30;2.10;;;;;;;;;;5023011;28;20180;-83
2022/07/29 04:34:29;;;;;;;3.73;2.43;;;;;;;;;;5003825;28;20225;-84
2022/07/29 04:37:33;;;;;;;3.60;2.17;;;;;;;;;;4992696;28;20676;-84
2022/07/29 04:40:37;;;;;;;2.27;2.03;;;;;;;;;;5017983;28;20637;-83
2022/07/29 04:43:41;;;;;;;4.90;2.40;;;;;;;;;;5022920;28;20659;-83
2022/07/29 04:46:46;;;;;;;2.37;2.10;;;;;;;;;;5011899;28;20220;-84
2022/07/29 04:49:50;;;;;;;2.67;2.30;;;;;;;;;;5000354;28;20217;-82
2022/07/29 04:52:54;;;;;;;5.40;2.00;;;;;;;;;;5022809;28;20658;-84
2022/07/29 04:55:58;;;;;;;5.13;2.50;;;;;;;;;;5012167;28;20196;-84
2022/07/29 04:59:02;;;;;;;4.10;2.30;;;;;;;;;;5011264;28;20177;-83
2022/07/29 05:02:06;;;;;;;2.43;2.23;;;;;;;;;;5022186;28;20176;-83
2022/07/29 05:05:11;;;;;;;2.83;2.10;;;;;;;;;;5022182;28;20189;-84
2022/07/29 05:08:15;;;;;;;3.67;2.67;;;;;;;;;;5017089;28;20216;-84
2022/07/29 05:11:19;;;;;;;3.30;2.13;;;;;;;;;;5033438;28;20209;-84
2022/07/29 05:14:23;;;;;;;2.30;2.10;;;;;;;;;;5033311;28;20188;-83
2022/07/29 05:17:27;;;;;;;2.93;2.20;;;;;;;;;;5010040;28;20224;-83
2022/07/29 05:20:32;;;;;;;3.10;2.27;;;;;;;;;;5020089;28;20185;-83
2022/07/29 05:23:36;;;;;;;2.53;2.00;;;;;;;;;;5020981;28;20173;-83
2022/07/29 05:26:40;;;;;;;3.60;2.00;;;;;;;;;;5022566;28;20192;-83
2022/07/29 05:29:44;;;;;;;2.10;1.90;;;;;;;;;;5022298;28;20212;-83
2022/07/29 05:32:49;;;;;;;2.47;2.10;;;;;;;;;;5010759;28;20196;-83
2022/07/29 05:35:52;;;;;;;3.53;2.17;;;;;;;;;;5011381;28;20193;-84
2022/07/29 05:38:57;;;;;;;4.23;2.27;;;;;;;;;;5021739;28;20193;-84
2022/07/29 05:42:01;;;;;;;3.03;2.17;;;;;;;;;;5010793;28;20189;-83
2022/07/29 05:45:06;;;;;;;2.33;2.13;;;;;;;;;;5034078;28;20181;-84
2022/07/29 05:48:10;;;;;;;3.73;2.07;;;;;;;;;;5021515;28;20556;-84
2022/07/29 05:51:15;;;;;;;4.97;2.40;;;;;;;;;;5010467;28;20201;-84
2022/07/29 05:54:19;;;;;;;4.17;2.40;;;;;;;;;;5021308;28;20522;-85
2022/07/29 05:57:24;;;;;;;3.57;2.20;;;;;;;;;;5008811;28;20223;-85
2022/07/29 06:00:29;;;;;;;4.33;2.70;;;;;;;;;;5020871;28;20196;-85
2022/07/29 06:03:34;;;;;;;4.90;2.70;;;;;;;;;;5023913;28;20185;-85
2022/07/29 06:06:38;;;;;;;3.20;2.87;;;;;;;;;;5009881;28;20177;-84
2022/07/29 06:09:42;;;;;;;3.57;2.70;;;;;;;;;;5009481;28;20200;-85
2022/07/29 06:12:46;;;;;;;2.50;2.30;;;;;;;;;;5008980;28;20545;-84
2022/07/29 06:15:50;;;;;;;3.23;2.80;;;;;;;;;;5020572;28;20204;-85
2022/07/29 06:18:54;;;;;;;3.30;2.50;;;;;;;;;;5009707;28;20173;-85
2022/07/29 06:21:59;;;;;;;5.20;2.53;;;;;;;;;;5009759;28;20181;-84
2022/07/29 06:25:03;;;;;;;2.67;2.23;;;;;;;;;;5022039;28;20193;-85
2022/07/29 06:28:07;;;;;;;2.40;2.10;;;;;;;;;;5020947;28;20699;-85
2022/07/29 06:31:11;;;;;;;2.57;2.03;;;;;;;;;;5021724;28;20204;-85
2022/07/29 06:34:15;;;;;;;2.17;1.90;;;;;;;;;;4999600;28;20204;-85
2022/07/29 06:37:21;;;;;;;2.37;1.80;;;;;;;;;;5024569;28;20556;-85
2022/07/29 06:43:51;;;;;;;1.60;1.50;;;;;;;;;;5007590;28;20200;-84
2022/07/29 06:46:55;;;;;;;2.73;1.70;;;;;;;;;;5019781;28;20221;-84
2022/07/29 06:49:59;;;;;;;2.67;1.47;;;;;;;;;;5029525;28;20216;-84
2022/07/29 06:53:04;;;;;;;1.97;1.47;;;;;;;;;;5012979;28;20180;-84
2022/07/29 06:56:08;;;;;;;1.63;1.50;;;;;;;;;;5012641;28;20188;-85
2022/07/29 06:59:13;;;;;;;2.00;1.43;;;;;;;;;;5012063;28;20208;-84
2022/07/29 07:02:17;;;;;;;2.47;1.30;;;;;;;;;;5023461;28;20196;-84
2022/07/29 07:05:21;;;;;;;4.93;1.47;;;;;;;;;;5003801;28;20204;-84
2022/07/29 07:08:25;;;;;;;1.60;1.50;;;;;;;;;;5011482;28;20216;-85
2022/07/29 07:11:29;;;;;;;1.73;1.50;;;;;;;;;;5012229;28;20212;-84
2022/07/29 07:14:34;;;;;;;7.17;1.60;;;;;;;;;;5012372;28;20200;-85
2022/07/29 07:17:38;;;;;;;2.50;1.60;;;;;;;;;;5012976;28;20220;-85
2022/07/29 07:20:42;;;;;;;1.60;1.27;;;;;;;;;;5023608;28;20189;-86
2022/07/29 07:23:46;;;;;;;2.17;1.50;;;;;;;;;;5023562;28;20201;-85
2022/07/29 07:26:51;;;;;;;1.90;1.40;;;;;;;;;;4993100;28;20561;-84
2022/07/29 07:29:55;;;;;;;1.80;1.40;;;;;;;;;;5010197;28;20533;-84
2022/07/29 07:32:59;;;;;;;4.27;1.50;;;;;;;;;;5000887;28;20194;-84
2022/07/29 07:36:03;;;;;;;3.67;1.57;;;;;;;;;;4995116;28;20191;-84
2022/07/29 07:39:07;;;;;;;1.40;1.20;;;;;;;;;;4997313;28;20191;-85
2022/07/29 07:42:12;;;;;;;4.70;1.30;;;;;;;;;;5042598;28;20195;-84
2022/07/29 07:45:17;;;;;;;2.20;1.07;;;;;;;;;;5014941;28;20538;-84
2022/07/29 07:48:21;;;;;;;1.73;1.10;;;;;;;;;;5018728;28;20217;-85
2022/07/29 07:51:25;;;;;;;2.30;0.87;;;;;;;;;;5005365;28;20208;-84
2022/07/29 07:54:30;;;;;;;1.85;1.20;;;;;;;;;;5013921;28;20184;-85
2022/07/29 07:57:34;;;;;;;1.65;0.95;;;;;;;;;;5011391;28;20560;-85
2022/07/29 08:00:38;;;;;;;1.10;1.00;;;;;;;;;;5020469;28;20182;-86
2022/07/29 08:03:43;;;;;;;1.20;1.05;;;;;;;;;;5030482;28;20660;-88
2022/07/29 08:06:49;;;;;;;2.72;1.05;;;;;;;;;;4993815;28;20221;-86
2022/07/29 08:09:53;;;;;;;1.20;1.00;;;;;;;;;;4992990;28;20545;-89
2022/07/29 08:12:58;;;;;;;1.45;0.98;;;;;;;;;;4992442;28;20184;-89
2022/07/29 08:16:11;;;;;;;3.58;1.30;;;;;;;;;;5019280;28;20202;-89
2022/07/29 08:19:15;;;;;;;1.40;1.00;;;;;;;;;;5003080;28;20189;-89
2022/07/29 08:22:19;;;;;;;3.72;1.10;;;;;;;;;;5022398;28;20652;-88
2022/07/29 08:25:23;;;;;;;3.28;1.10;;;;;;;;;;5011632;28;20179;-88
2022/07/29 08:28:27;;;;;;;1.42;0.90;;;;;;;;;;5022666;28;20698;-89
2022/07/29 08:31:31;;;;;;;1.40;0.90;;;;;;;;;;5021907;28;20212;-89
2022/07/29 08:34:35;;;;;;;1.17;1.08;;;;;;;;;;5022407;28;20184;-88
2022/07/29 08:37:39;;;;;;;1.70;0.85;;;;;;;;;;5010830;28;20220;-88
2022/07/29 08:40:45;;;;;;;1.02;0.93;;;;;;;;;;5022742;28;20189;-88
2022/07/29 08:43:49;;;;;;;1.20;1.10;;;;;;;;;;5011537;28;20193;-88
2022/07/29 08:46:53;;;;;;;3.97;1.10;;;;;;;;;;5003408;28;20679;-89
2022/07/29 08:49:58;;;;;;;2.30;1.00;;;;;;;;;;5031238;28;20177;-88
2022/07/29 08:53:03;;;;;;;1.30;1.05;;;;;;;;;;5031960;28;20173;-89
2022/07/29 08:56:08;;;;;;;1.27;1.00;;;;;;;;;;5021416;28;20193;-88
2022/07/29 08:59:13;;;;;;;2.83;1.38;;;;;;;;;;5020246;28;20205;-89
2022/07/29 09:02:22;;;;;;;1.33;1.10;;;;;;;;;;5019695;28;20182;-89
2022/07/29 09:05:27;;;;;;;1.13;0.82;;;;;;;;;;5000185;28;20182;-89
2022/07/29 09:08:32;;;;;;;1.17;0.90;;;;;;;;;;5019651;28;20221;-89
2022/07/29 09:11:37;;;;;;;2.30;1.00;;;;;;;;;;5018657;28;20205;-89
2022/07/29 09:14:41;;;;;;;0.90;0.82;;;;;;;;;;5017789;28;20204;-89
2022/07/29 09:17:48;;;;;;;1.50;1.20;;;;;;;;;;5027951;28;20232;-89
2022/07/29 09:24:15;;;;;;;1.40;1.00;;;;;;;;;;5061890;28;20176;-89
2022/07/29 09:27:26;;;;;;;3.15;0.98;;;;;;;;;;5042383;28;20221;-89
2022/07/29 09:30:30;;;;;;;1.50;1.00;;;;;;;;;;4983369;28;20185;-89
2022/07/29 09:33:35;;;;;;;1.45;1.00;;;;;;;;;;4991239;28;20182;-89
2022/07/29 09:36:46;;;;;;;1.13;1.02;;;;;;;;;;5002991;28;20660;-89
2022/07/29 09:39:51;;;;;;;3.15;1.00;;;;;;;;;;5024266;28;20193;-89
2022/07/29 09:42:56;;;;;;;1.42;1.00;;;;;;;;;;4991376;28;20656;-89
2022/07/29 09:46:19;;;;;;;1.48;1.10;;;;;;;;;;4991083;28;20201;-89
2022/07/29 09:49:24;;;;;;;2.13;0.93;;;;;;;;;;5006967;28;20197;-89
2022/07/29 09:52:29;;;;;;;1.05;0.90;;;;;;;;;;5018054;28;20216;-88
2022/07/29 09:55:46;;;;;;;0.90;0.80;;;;;;;;;;5028772;28;20530;-89
2022/07/29 09:59:05;;;;;;;3.13;0.90;;;;;;;;;;5002740;28;20545;-89
2022/07/29 10:02:13;;;;;;;2.00;1.00;;;;;;;;;;4990377;28;20197;-89
2022/07/29 10:05:25;;;;;;;1.95;1.40;;;;;;;;;;5032691;28;20197;-88
2022/07/29 10:08:30;;;;;;;1.55;1.08;;;;;;;;;;5012514;28;20221;-88
2022/07/29 10:11:34;;;;;;;4.32;1.10;;;;;;;;;;5030106;28;20208;-88
2022/07/29 10:14:39;;;;;;;1.65;1.10;;;;;;;;;;5037962;28;20193;-88
2022/07/29 10:17:43;;;;;;;1.30;1.02;;;;;;;;;;5012635;28;20217;-89
2022/07/29 10:20:48;;;;;;;1.50;1.00;;;;;;;;;;5028797;28;20185;-89
2022/07/29 10:23:53;;;;;;;5.03;1.10;;;;;;;;;;5033788;28;20632;-89
2022/07/29 10:26:59;;;;;;;2.38;1.10;;;;;;;;;;5015747;28;20559;-89
2022/07/29 10:30:04;;;;;;;2.03;1.10;;;;;;;;;;5005567;28;20185;-89
2022/07/29 10:33:29;;;;;;;2.28;1.00;;;;;;;;;;5006954;28;20210;-89
2022/07/29 10:36:49;;;;;;;1.45;0.88;;;;;;;;;;5012667;28;20182;-89
2022/07/29 10:43:37;;;;;;;1.17;1.08;;;;;;;;;;5022647;28;20184;-89
2022/07/29 10:46:42;;;;;;;1.20;1.00;;;;;;;;;;5009699;28;20189;-89
2022/07/29 10:50:02;;;;;;;1.58;1.00;;;;;;;;;;5018586;28;20178;-89
2022/07/29 10:53:06;;;;;;;2.35;1.20;;;;;;;;;;5002104;28;20209;-89
2022/07/29 10:56:25;;;;;;;3.00;1.35;;;;;;;;;;5002045;28;20193;-89
2022/07/29 10:59:31;;;;;;;1.98;1.35;;;;;;;;;;5014793;28;20192;-89
2022/07/29 11:02:39;;;;;;;1.58;1.20;;;;;;;;;;5044400;28;20619;-89
2022/07/29 11:05:55;;;;;;;1.27;1.10;;;;;;;;;;5032789;28;20180;-89
2022/07/29 11:09:19;;;;;;;1.45;1.10;;;;;;;;;;5031680;28;20192;-89
2022/07/29 11:12:35;;;;;;;2.08;1.35;;;;;;;;;;5021161;28;20205;-89
2022/07/29 11:15:53;;;;;;;2.70;1.38;;;;;;;;;;5025476;28;20641;-89
2022/07/29 11:19:12;;;;;;;3.05;1.30;;;;;;;;;;5012027;28;20535;-89
2022/07/29 11:22:32;;;;;;;1.60;1.50;;;;;;;;;;5034070;28;20198;-89
2022/07/29 11:25:37;;;;;;;4.47;1.60;;;;;;;;;;5010009;28;20197;-89
2022/07/29 11:28:51;;;;;;;2.20;1.38;;;;;;;;;;5001131;28;20224;-89
2022/07/29 11:32:09;;;;;;;4.28;1.77;;;;;;;;;;5012370;28;20209;-89
2022/07/29 11:35:23;;;;;;;3.20;1.55;;;;;;;;;;5012579;28;20181;-89
2022/07/29 11:38:28;;;;;;;2.00;1.70;;;;;;;;;;5000617;28;20221;-89
2022/07/29 11:41:36;;;;;;;2.58;1.75;;;;;;;;;;5000819;28;20193;-89
2022/07/29 11:45:06;;;;;;;2.50;1.90;;;;;;;;;;5010849;28;20189;-89
2022/07/29 11:48:13;;;;;;;1.70;1.50;;;;;;;;;;5023786;28;20224;-89
2022/07/29 11:51:17;;;;;;;2.45;1.70;;;;;;;;;;5001454;28;20231;-91
2022/07/29 11:54:26;;;;;;;2.83;1.90;;;;;;;;;;4992812;28;20198;-91
2022/07/29 11:57:31;;;;;;;4.18;1.88;;;;;;;;;;5003205;28;20197;-90
2022/07/29 12:00:38;;;;;;;3.80;1.95;;;;;;;;;;5011938;28;20212;-90
2022/07/29 12:03:42;;;;;;;3.28;2.03;;;;;;;;;;5011983;28;20169;-90
2022/07/29 12:06:51;;;;;;;2.92;2.13;;;;;;;;;;5034176;28;20185;-90
2022/07/29 12:09:55;;;;;;;2.60;1.92;;;;;;;;;;5022939;28;20687;-90
2022/07/29 12:12:59;;;;;;;3.80;2.00;;;;;;;;;;5034751;28;20217;-91
2022/07/29 12:16:04;;;;;;;7.00;2.13;;;;;;;;;;5011411;28;20205;-90
2022/07/29 12:19:08;;;;;;;2.53;1.77;;;;;;;;;;5022858;28;20212;-90
2022/07/29 12:22:12;;;;;;;4.55;2.00;;;;;;;;;;5022200;28;20185;-90
2022/07/29 12:25:18;;;;;;;4.45;2.15;;;;;;;;;;5011873;28;20640;-90
2022/07/29 12:28:22;;;;;;;4.53;1.90;;;;;;;;;;5033795;28;20201;-87
2022/07/29 12:31:27;;;;;;;5.53;1.85;;;;;;;;;;5022547;28;20177;-90
2022/07/29 12:34:31;;;;;;;2.17;1.92;;;;;;;;;;5034003;28;20551;-86
2022/07/29 12:37:36;;;;;;;2.92;1.80;;;;;;;;;;5013968;28;20193;-91
2022/07/29 12:40:46;;;;;;;1.95;1.73;;;;;;;;;;5021467;28;20222;-90
2022/07/29 12:43:54;;;;;;;4.82;1.92;;;;;;;;;;5003447;28;20190;-90
2022/07/29 12:47:05;;;;;;;3.65;2.00;;;;;;;;;;5014123;28;20202;-90
2022/07/29 12:50:14;;;;;;;3.58;1.77;;;;;;;;;;5006675;28;20229;-90
2022/07/29 12:53:18;;;;;;;3.90;1.58;;;;;;;;;;5037362;28;20204;-90
2022/07/29 12:56:21;;;;;;;4.90;1.73;;;;;;;;;;5053590;28;20200;-90
2022/07/29 12:59:25;;;;;;;1.80;1.67;;;;;;;;;;5041478;28;20216;-90
2022/07/29 13:02:30;;;;;;;3.45;1.83;;;;;;;;;;5041151;28;20532;-89
2022/07/29 13:05:42;;;;;;;3.90;1.80;;;;;;;;;;5041069;28;20204;-90
2022/07/29 13:09:19;;;;;;;3.05;1.83;;;;;;;;;;5041600;28;20208;-90
2022/07/29 13:12:24;;;;;;;3.58;1.70;;;;;;;;;;5040780;28;20208;-90
2022/07/29 13:15:28;;;;;;;2.50;1.60;;;;;;;;;;5022005;28;20640;-90
2022/07/29 13:18:35;;;;;;;3.33;1.67;;;;;;;;;;5023698;28;20225;-89
2022/07/29 13:21:40;;;;;;;3.72;1.80;;;;;;;;;;5041274;28;20654;-90
2022/07/29 13:24:54;;;;;;;2.00;1.60;;;;;;;;;;5052783;28;20674;-90
2022/07/29 13:27:59;;;;;;;6.63;1.83;;;;;;;;;;5034957;28;20189;-90
2022/07/29 13:31:04;;;;;;;4.28;1.70;;;;;;;;;;5010792;28;20510;-90
2022/07/29 13:34:09;;;;;;;4.68;2.10;;;;;;;;;;5052083;28;20181;-90
2022/07/29 13:37:14;;;;;;;3.55;1.83;;;;;;;;;;5024985;28;20192;-90
2022/07/29 13:40:18;;;;;;;2.53;1.55;;;;;;;;;;5040713;28;20212;-89
2022/07/29 13:43:22;;;;;;;2.88;1.75;;;;;;;;;;5040797;28;20193;-90
2022/07/29 13:46:26;;;;;;;4.90;1.63;;;;;;;;;;5030157;28;20201;-90
2022/07/29 13:49:30;;;;;;;4.68;1.80;;;;;;;;;;5021196;28;20228;-89
2022/07/29 13:52:35;;;;;;;2.15;1.85;;;;;;;;;;5021289;28;20208;-90
2022/07/29 13:55:39;;;;;;;3.75;1.60;;;;;;;;;;5029145;28;20192;-85
2022/07/29 13:58:43;;;;;;;3.83;1.55;;;;;;;;;;5040495;28;20215;-89
2022/07/29 14:01:48;;;;;;;6.05;1.75;;;;;;;;;;5030156;28;20176;-90
2022/07/29 14:04:55;;;;;;;2.63;1.50;;;;;;;;;;5028661;28;20193;-91
2022/07/29 14:07:59;;;;;;;2.38;1.30;;;;;;;;;;5052595;28;20192;-90
2022/07/29 14:11:04;;;;;;;2.28;1.88;;;;;;;;;;5041031;28;20181;-90
2022/07/29 14:14:09;;;;;;;2.95;1.65;;;;;;;;;;5041069;28;20208;-89
2022/07/29 14:17:15;;;;;;;7.90;2.17;;;;;;;;;;5040365;28;20212;-90
2022/07/29 14:20:19;;;;;;;11.57;2.75;;;;;;;;;;5041134;28;20212;-89
2022/07/29 14:23:23;;;;;;;22.70;4.97;;;;;;;;;;5041008;28;20187;-88
2022/07/29 14:26:27;;;;;;;20.25;4.03;;;;;;;;;;5029617;28;20196;-89
2022/07/29 14:29:32;;;;;;;4.18;1.90;;;;;;;;;;5040558;28;20229;-90
2022/07/29 14:32:36;;;;;;;3.38;1.88;;;;;;;;;;5040538;28;20216;-90
2022/07/29 14:35:40;;;;;;;4.78;1.63;;;;;;;;;;5041437;28;20517;-89
2022/07/29 14:38:44;;;;;;;3.13;1.30;;;;;;;;;;5028461;28;20227;-89
2022/07/29 14:41:49;;;;;;;3.60;1.60;;;;;;;;;;5024232;28;20188;-89
2022/07/29 14:44:53;;;;;;;2.90;1.90;;;;;;;;;;5020982;28;20184;-89
2022/07/29 14:47:58;;;;;;;4.15;1.90;;;;;;;;;;5040011;28;20204;-89
2022/07/29 14:51:02;;;;;;;4.22;1.65;;;;;;;;;;5039460;28;20193;-89
2022/07/29 14:54:06;;;;;;;4.97;1.88;;;;;;;;;;5020815;28;20546;-90
2022/07/29 14:57:10;;;;;;;5.32;1.92;;;;;;;;;;5024682;28;20188;-89
2022/07/29 15:00:16;;;;;;;1.80;1.60;;;;;;;;;;5012875;28;20217;-89
2022/07/29 15:03:20;;;;;;;3.72;1.77;;;;;;;;;;5050389;28;20183;-89
2022/07/29 15:06:25;;;;;;;3.35;1.92;;;;;;;;;;5043382;28;20189;-89
2022/07/29 15:09:29;;;;;;;3.05;2.05;;;;;;;;;;5055616;28;20220;-89
2022/07/29 15:12:32;;;;;;;2.78;2.15;;;;;;;;;;5043755;28;20202;-89
2022/07/29 15:15:37;;;;;;;6.10;1.77;;;;;;;;;;5043440;28;20203;-89
2022/07/29 15:18:41;;;;;;;4.10;2.00;;;;;;;;;;5031200;28;20218;-88
2022/07/29 15:21:45;;;;;;;3.67;1.95;;;;;;;;;;5013216;28;20210;-88
2022/07/29 15:24:49;;;;;;;4.10;2.05;;;;;;;;;;5043781;28;20179;-89
2022/07/29 15:27:53;;;;;;;4.03;2.15;;;;;;;;;;5043106;28;20194;-88
2022/07/29 15:30:58;;;;;;;7.20;2.28;;;;;;;;;;5042872;28;20203;-89
2022/07/29 15:34:02;;;;;;;2.78;1.80;;;;;;;;;;5043100;28;20209;-89
2022/07/29 15:37:06;;;;;;;4.60;2.40;;;;;;;;;;5043392;28;20194;-89
2022/07/29 15:40:10;;;;;;;5.72;2.42;;;;;;;;;;5031328;28;20700;-89
2022/07/29 15:43:14;;;;;;;3.35;2.00;;;;;;;;;;5031527;28;20192;-89
2022/07/29 15:50:02;;;;;;;8.73;2.60;;;;;;;;;;4962066;28;20290;-89
2022/07/29 15:53:07;;;;;;;4.47;2.40;;;;;;;;;;4955134;28;20209;-90
2022/07/29 15:56:11;;;;;;;2.20;1.95;;;;;;;;;;5012059;28;20181;-89
2022/07/29 15:59:16;;;;;;;3.58;2.10;;;;;;;;;;5020174;28;20226;-90
2022/07/29 16:02:20;;;;;;;5.07;1.90;;;;;;;;;;5012171;28;20519;-89
2022/07/29 16:05:24;;;;;;;3.67;1.63;;;;;;;;;;5030705;28;20196;-90
2022/07/29 16:08:28;;;;;;;5.28;2.30;;;;;;;;;;5042243;28;20185;-89
2022/07/29 16:11:32;;;;;;;5.82;2.10;;;;;;;;;;5031238;28;20599;-89
2022/07/29 16:14:36;;;;;;;2.72;1.88;;;;;;;;;;5042603;28;20207;-89
2022/07/29 16:17:40;;;;;;;4.57;2.40;;;;;;;;;;5048249;28;20191;-90
2022/07/29 16:20:44;;;;;;;2.75;1.80;;;;;;;;;;5035754;28;20181;-90
2022/07/29 16:23:49;;;;;;;5.03;2.20;;;;;;;;;;5040808;28;20182;-90
2022/07/29 16:26:53;;;;;;;3.63;2.13;;;;;;;;;;5049860;28;20178;-90
2022/07/29 16:29:57;;;;;;;3.63;2.00;;;;;;;;;;5059227;28;20217;-89
2022/07/29 16:33:02;;;;;;;4.68;1.95;;;;;;;;;;5028877;28;20565;-90
2022/07/29 16:36:06;;;;;;;4.10;2.15;;;;;;;;;;5049410;28;20188;-90
2022/07/29 16:39:11;;;;;;;4.05;1.88;;;;;;;;;;5039766;28;20220;-89
2022/07/29 16:42:15;;;;;;;3.30;1.70;;;;;;;;;;5029350;28;20197;-90
2022/07/29 16:45:19;;;;;;;2.83;2.10;;;;;;;;;;5046233;28;20185;-90
2022/07/29 16:48:23;;;;;;;4.10;2.00;;;;;;;;;;5028433;28;20538;-90
2022/07/29 16:51:28;;;;;;;4.63;1.80;;;;;;;;;;5057217;28;20183;-91
2022/07/29 16:54:33;;;;;;;3.83;2.03;;;;;;;;;;5045280;28;20206;-90
2022/07/29 16:57:37;;;;;;;5.37;2.10;;;;;;;;;;5056339;28;20186;-90
2022/07/29 17:00:41;;;;;;;4.25;1.80;;;;;;;;;;5057122;28;20179;-90
2022/07/29 17:07:08;;;;;;;2.30;1.60;;;;;;;;;;5051483;28;20642;-85
2022/07/29 17:10:12;;;;;;;3.17;1.93;;;;;;;;;;5041141;28;20212;-85
2022/07/29 17:13:16;;;;;;;4.13;1.73;;;;;;;;;;5042663;28;20535;-85
2022/07/29 17:16:23;;;;;;;3.87;1.83;;;;;;;;;;5053220;28;20188;-85
2022/07/29 17:19:30;;;;;;;3.10;1.73;;;;;;;;;;5061970;28;20215;-90
2022/07/29 17:22:35;;;;;;;2.67;1.87;;;;;;;;;;5050787;28;20200;-89
2022/07/29 17:25:39;;;;;;;2.97;2.10;;;;;;;;;;5030438;28;20195;-89
2022/07/29 17:28:43;;;;;;;3.57;1.80;;;;;;;;;;5031485;28;20222;-89
2022/07/29 17:36:40;;;;;;;1.80;1.67;;;;;;;;;;5066402;28;20188;-90
2022/07/29 17:39:45;;;;;;;4.00;1.73;;;;;;;;;;5042031;28;20220;-89
2022/07/29 17:42:49;;;;;;;1.93;1.60;;;;;;;;;;5053187;28;20173;-90
2022/07/29 17:45:53;;;;;;;1.30;1.20;;;;;;;;;;5063627;28;20175;-90
2022/07/29 17:48:58;;;;;;;2.37;1.40;;;;;;;;;;5030817;28;20686;-91
2022/07/29 17:52:03;;;;;;;2.83;1.43;;;;;;;;;;5030176;28;20180;-90
2022/07/29 17:55:09;;;;;;;2.67;1.37;;;;;;;;;;5041235;28;20196;-91
2022/07/29 17:58:13;;;;;;;1.73;1.30;;;;;;;;;;5041432;28;20176;-90
2022/07/29 18:01:17;;;;;;;1.27;1.17;;;;;;;;;;5029561;28;20675;-90
2022/07/29 18:04:22;;;;;;;1.40;1.30;;;;;;;;;;5029740;28;20176;-90
2022/07/29 18:07:26;;;;;;;2.47;1.60;;;;;;;;;;5029937;28;20543;-91
2022/07/29 18:10:30;;;;;;;2.30;1.80;;;;;;;;;;5018173;28;20220;-90
2022/07/29 18:13:34;;;;;;;2.53;1.33;;;;;;;;;;5019985;28;20204;-90
2022/07/29 18:16:38;;;;;;;2.37;1.70;;;;;;;;;;5038020;28;20188;-91
2022/07/29 18:19:42;;;;;;;2.63;1.70;;;;;;;;;;5038444;28;20207;-90
2022/07/29 18:22:47;;;;;;;2.10;1.77;;;;;;;;;;5029867;28;20184;-90
2022/07/29 18:25:51;;;;;;;3.20;1.70;;;;;;;;;;5040897;28;20200;-90
2022/07/29 18:28:54;;;;;;;2.20;1.57;;;;;;;;;;5018580;28;20220;-91
2022/07/29 18:32:00;;;;;;;2.90;1.80;;;;;;;;;;5021922;28;20175;-90
2022/07/29 18:35:05;;;;;;;2.23;1.80;;;;;;;;;;5053141;28;20211;-90
2022/07/29 18:38:09;;;;;;;2.17;1.93;;;;;;;;;;5064327;28;20195;-90
2022/07/29 18:41:13;;;;;;;2.80;2.37;;;;;;;;;;5053282;28;20199;-90
2022/07/29 18:44:19;;;;;;;2.13;1.93;;;;;;;;;;5053069;28;20171;-90
2022/07/29 18:47:23;;;;;;;2.63;1.97;;;;;;;;;;5052856;28;20175;-90
2022/07/29 18:50:28;;;;;;;7.80;2.20;;;;;;;;;;5041542;28;20222;-90
2022/07/29 18:53:32;;;;;;;2.73;1.87;;;;;;;;;;5064538;28;20199;-89
2022/07/29 18:56:37;;;;;;;2.83;2.10;;;;;;;;;;5041204;28;20203;-89
2022/07/29 18:59:42;;;;;;;2.60;1.97;;;;;;;;;;5053107;28;20211;-89